createdAt,value
2023-03-27T00:04:09.362Z,6.64
2023-03-27T00:09:11.718Z,6.63
2023-03-27T00:14:14.006Z,6.57
2023-03-27T00:19:16.014Z,6.53
2023-03-27T00:24:17.770Z,6.49
2023-03-27T00:29:19.364Z,6.49
2023-03-27T00:34:21.150Z,6.89
2023-03-27T00:39:23.771Z,6.74
2023-03-27T00:44:31.162Z,6.56
2023-03-27T00:49:37.061Z,6.53
2023-03-27T00:54:40.051Z,6.52
2023-03-27T00:59:43.744Z,6.37
2023-03-27T01:04:46.574Z,6.38
2023-03-27T01:09:49.741Z,6.44
2023-03-27T01:15:26.463Z,6.32
2023-03-27T01:20:57.396Z,6.28
2023-03-27T01:26:35.653Z,6.18
2023-03-27T01:32:07.333Z,6.17
2023-03-27T01:37:22.317Z,6.24
2023-03-27T01:42:36.668Z,6.18
2023-03-27T01:47:51.645Z,6.17
2023-03-27T01:53:31.177Z,6.21
2023-03-27T01:58:40.850Z,6.22
2023-03-27T02:03:46.924Z,6.22
2023-03-27T02:09:04.055Z,6.18
2023-03-27T02:14:16.903Z,6.30
2023-03-27T02:19:25.985Z,6.26
2023-03-27T02:24:27.973Z,6.24
2023-03-27T02:29:35.264Z,6.22
2023-03-27T02:34:57.153Z,6.32
2023-03-27T02:40:24.125Z,6.90
2023-03-27T02:45:38.018Z,6.68
2023-03-27T02:51:03.756Z,6.25
2023-03-27T02:56:08.465Z,6.14
2023-03-27T03:01:13.756Z,5.99
2023-03-27T03:06:34.634Z,5.97
2023-03-27T03:11:44.727Z,5.94
2023-03-27T03:16:46.683Z,5.97
2023-03-27T03:21:49.492Z,5.91
2023-03-27T03:26:51.247Z,5.82
2023-03-27T03:31:54.006Z,5.85
2023-03-27T03:36:56.321Z,5.86
2023-03-27T03:42:04.275Z,5.87
2023-03-27T03:47:06.254Z,6.56
2023-03-27T03:52:08.413Z,7.30
2023-03-27T03:57:10.448Z,7.40
2023-03-27T04:02:12.526Z,6.38
2023-03-27T04:07:14.395Z,6.15
2023-03-27T04:12:20.436Z,6.04
2023-03-27T04:17:30.213Z,6.27
2023-03-27T04:22:37.943Z,5.80
2023-03-27T04:27:43.416Z,5.78
2023-03-27T04:32:53.163Z,5.56
2023-03-27T04:38:28.200Z,5.58
2023-03-27T04:43:40.159Z,5.51
2023-03-27T04:48:42.722Z,5.51
2023-03-27T04:54:05.058Z,5.42
2023-03-27T04:59:07.239Z,5.43
2023-03-27T05:04:09.026Z,5.41
2023-03-27T05:09:23.712Z,5.52
2023-03-27T05:14:25.422Z,5.52
2023-03-27T05:19:28.645Z,5.49
2023-03-27T05:24:33.945Z,5.65
2023-03-27T05:29:46.928Z,5.62
2023-03-27T05:34:51.341Z,5.65
2023-03-27T05:39:54.305Z,5.54
2023-03-27T05:44:56.189Z,6.20
2023-03-27T05:49:58.281Z,6.31
2023-03-27T05:55:00.116Z,5.65
2023-03-27T06:00:02.055Z,5.52
2023-03-27T06:05:10.675Z,5.51
2023-03-27T06:10:17.866Z,5.54
2023-03-27T06:15:40.927Z,5.63
2023-03-27T06:20:54.178Z,5.77
2023-03-27T06:25:56.160Z,5.73
2023-03-27T06:30:59.852Z,6.25
2023-03-27T06:36:14.786Z,6.86
2023-03-27T06:41:17.877Z,6.47
2023-03-27T06:46:45.955Z,6.39
2023-03-27T06:51:52.369Z,6.28
2023-03-27T06:56:55.930Z,6.36
2023-03-27T07:01:58.201Z,7.09
2023-03-27T07:06:59.914Z,7.52
2023-03-27T07:12:06.704Z,7.06
2023-03-27T07:17:09.845Z,7.13
2023-03-27T07:22:30.049Z,6.86
2023-03-27T07:27:37.921Z,7.21
2023-03-27T07:32:43.003Z,7.04
2023-03-27T07:37:45.677Z,7.15
2023-03-27T07:43:09.115Z,7.38
2023-03-27T07:48:16.251Z,7.74
2023-03-27T07:53:32.988Z,7.62
2023-03-27T07:58:44.722Z,7.66
2023-03-27T08:03:53.028Z,7.28
2023-03-27T08:08:57.105Z,7.39
2023-03-27T08:14:02.198Z,7.44
2023-03-27T08:19:04.704Z,7.54
2023-03-27T08:24:10.070Z,7.77
2023-03-27T08:29:43.381Z,7.73
2023-03-27T08:34:45.752Z,7.80
2023-03-27T08:39:58.792Z,7.29
2023-03-27T08:45:09.561Z,7.78
2023-03-27T08:50:41.239Z,8.14
2023-03-27T08:55:52.520Z,8.60
2023-03-27T09:01:45.179Z,8.87
2023-03-27T09:07:23.043Z,8.94
2023-03-27T09:12:46.710Z,8.54
2023-03-27T09:17:57.674Z,8.94
2023-03-27T09:23:05.518Z,9.24
2023-03-27T09:28:36.071Z,9.49
2023-03-27T09:33:42.269Z,9.19
2023-03-27T09:38:50.771Z,8.56
2023-03-27T09:44:09.935Z,8.69
2023-03-27T09:49:17.900Z,8.81
2023-03-27T09:54:25.626Z,9.47
2023-03-27T09:59:30.670Z,9.80
2023-03-27T10:04:40.250Z,10.13
2023-03-27T10:09:42.023Z,10.11
2023-03-27T10:14:51.787Z,10.40
2023-03-27T10:20:17.652Z,10.44
2023-03-27T10:25:38.850Z,10.13
2023-03-27T10:31:01.356Z,10.45
2023-03-27T10:36:26.613Z,10.05
2023-03-27T10:41:29.438Z,10.37
2023-03-27T10:46:39.686Z,9.83
2023-03-27T10:52:13.122Z,10.10
2023-03-27T10:57:35.657Z,10.91
2023-03-27T11:02:57.367Z,10.79
2023-03-27T11:08:08.558Z,10.33
2023-03-27T11:13:11.447Z,10.02
2023-03-27T11:18:20.156Z,10.71
2023-03-27T11:23:42.401Z,11.04
2023-03-27T11:28:58.391Z,11.03
2023-03-27T11:34:15.439Z,10.97
2023-03-27T11:39:39.521Z,11.17
2023-03-27T11:44:41.983Z,11.19
2023-03-27T11:50:01.364Z,11.57
2023-03-27T11:55:31.260Z,11.49
2023-03-27T12:00:45.113Z,11.13
2023-03-27T12:06:14.744Z,11.37
2023-03-27T12:11:21.902Z,11.00
2023-03-27T12:16:48.598Z,10.61
2023-03-27T12:22:32.617Z,10.27
2023-03-27T12:28:23.028Z,9.94
2023-03-27T12:33:44.687Z,8.90
2023-03-27T12:38:47.062Z,8.91
2023-03-27T12:43:57.683Z,9.61
2023-03-27T12:49:13.762Z,10.12
2023-03-27T12:54:35.517Z,10.56
2023-03-27T12:59:59.807Z,10.68
2023-03-27T13:05:26.779Z,11.03
2023-03-27T13:10:49.446Z,10.72
2023-03-27T13:16:23.551Z,10.97
2023-03-27T13:22:05.082Z,11.37
2023-03-27T13:27:35.406Z,11.49
2023-03-27T13:32:39.959Z,11.39
2023-03-27T13:37:50.962Z,11.41
2023-03-27T13:43:23.170Z,11.51
2023-03-27T13:48:56.350Z,11.51
2023-03-27T13:54:20.784Z,11.63
2023-03-27T13:59:46.148Z,11.61
2023-03-27T14:05:09.091Z,11.53
2023-03-27T14:10:42.635Z,11.06
2023-03-27T14:16:13.388Z,10.77
2023-03-27T14:21:35.652Z,10.73
2023-03-27T14:26:45.441Z,11.17
2023-03-27T14:31:50.942Z,11.29
2023-03-27T14:37:39.552Z,11.44
2023-03-27T14:43:12.211Z,11.45
2023-03-27T14:48:19.669Z,11.32
2023-03-27T14:53:29.276Z,10.55
2023-03-27T14:59:03.725Z,10.52
2023-03-27T15:04:35.021Z,10.56
2023-03-27T15:09:42.866Z,10.59
2023-03-27T15:15:17.123Z,10.20
2023-03-27T15:20:21.814Z,10.06
2023-03-27T15:25:36.145Z,10.32
2023-03-27T15:30:45.156Z,10.34
2023-03-27T15:35:51.820Z,10.21
2023-03-27T15:41:01.703Z,10.28
2023-03-27T15:46:26.719Z,9.94
2023-03-27T15:51:31.007Z,9.73
2023-03-27T15:56:40.338Z,9.49
2023-03-27T16:01:52.182Z,9.39
2023-03-27T16:07:17.953Z,9.80
2023-03-27T16:12:32.219Z,10.39
2023-03-27T16:17:40.443Z,9.71
2023-03-27T16:22:42.246Z,9.60
2023-03-27T16:27:51.299Z,9.77
2023-03-27T16:32:53.738Z,9.52
2023-03-27T16:37:56.539Z,9.47
2023-03-27T16:42:58.176Z,9.43
2023-03-27T16:47:59.866Z,9.39
2023-03-27T16:53:01.654Z,9.35
2023-03-27T16:58:03.865Z,9.31
2023-03-27T17:03:05.660Z,9.22
2023-03-27T17:08:08.783Z,9.06
2023-03-27T17:13:10.950Z,8.87
2023-03-27T17:18:12.790Z,8.98
2023-03-27T17:23:15.176Z,8.98
2023-03-27T17:28:17.341Z,8.79
2023-03-27T17:33:19.011Z,8.72
2023-03-27T17:38:22.925Z,8.59
2023-03-27T17:43:24.720Z,8.51
2023-03-27T17:48:26.358Z,8.54
2023-03-27T17:53:29.192Z,8.30
2023-03-27T17:58:31.357Z,8.28
2023-03-27T18:03:33.246Z,8.43
2023-03-27T18:08:35.416Z,8.29
2023-03-27T18:13:37.905Z,8.12
2023-03-27T18:18:40.251Z,7.95
2023-03-27T18:23:46.525Z,7.95
2023-03-27T18:28:48.633Z,7.93
2023-03-27T18:33:50.328Z,7.92
2023-03-27T18:38:52.156Z,7.88
2023-03-27T18:43:53.991Z,8.05
2023-03-27T18:48:55.903Z,7.78
2023-03-27T18:53:58.154Z,7.93
2023-03-27T18:58:59.876Z,8.16
2023-03-27T19:04:03.876Z,8.09
2023-03-27T19:09:05.755Z,7.65
2023-03-27T19:14:08.101Z,7.63
2023-03-27T19:19:18.926Z,7.50
2023-03-27T19:24:26.427Z,7.34
2023-03-27T19:29:29.237Z,7.31
2023-03-27T19:34:42.116Z,7.24
2023-03-27T19:39:44.657Z,7.16
2023-03-27T19:44:46.433Z,7.09
2023-03-27T19:49:49.215Z,7.08
2023-03-27T19:54:50.937Z,7.04
2023-03-27T19:59:53.676Z,6.99
2023-03-27T20:04:55.688Z,6.96
2023-03-27T20:09:57.329Z,6.91
2023-03-27T20:15:10.602Z,6.87
2023-03-27T20:20:17.681Z,6.84
2023-03-27T20:25:19.343Z,6.91
2023-03-27T20:30:21.223Z,6.95
2023-03-27T20:35:25.118Z,6.87
2023-03-27T20:40:27.176Z,6.80
2023-03-27T20:45:30.903Z,6.78
2023-03-27T20:50:35.388Z,7.21
2023-03-27T21:00:43.670Z,7.33
2023-03-27T21:05:45.533Z,6.91
2023-03-27T21:10:53.993Z,6.73
2023-03-27T21:15:56.062Z,6.73
2023-03-27T21:20:57.925Z,6.71
2023-03-27T21:26:00.029Z,6.70
2023-03-27T21:31:07.022Z,6.66
2023-03-27T21:36:10.007Z,6.66
2023-03-27T21:41:17.182Z,6.65
2023-03-27T21:46:19.011Z,6.58
2023-03-27T21:51:21.147Z,6.58
2023-03-27T21:56:23.045Z,6.57
2023-03-27T22:01:26.033Z,6.59
2023-03-27T22:06:31.650Z,6.53
2023-03-27T22:11:33.350Z,6.44
2023-03-27T22:16:35.174Z,6.42
2023-03-27T22:21:36.968Z,6.50
2023-03-27T22:26:40.281Z,6.48
2023-03-27T22:31:42.016Z,6.47
2023-03-27T22:36:44.237Z,6.50
2023-03-27T22:41:46.123Z,6.46
2023-03-27T22:46:47.844Z,6.43
2023-03-27T22:51:49.551Z,6.47
2023-03-27T22:56:51.413Z,6.48
2023-03-27T23:01:53.322Z,6.39
2023-03-27T23:06:55.449Z,6.36
2023-03-27T23:11:57.121Z,6.22
2023-03-27T23:16:58.969Z,6.26
2023-03-27T23:22:00.905Z,6.38
2023-03-27T23:27:04.986Z,6.36
2023-03-27T23:32:06.920Z,6.33
2023-03-27T23:37:08.709Z,6.36
2023-03-27T23:42:10.689Z,6.24
2023-03-27T23:47:13.055Z,6.21
2023-03-27T23:52:14.991Z,6.20
2023-03-27T23:57:16.709Z,6.15
